Terminal Aerodrome Forecast
Issued by NWS Louisville, KY

Home | Current Version | Previous Version | Text Only | Print | Product List | Glossary On
Versions: 1 2 3 4 5 6 7 8 9 10 11 12
000
FTUS43 KLMK 242320
TAFSDF
TAF
KSDF 242320Z 2500/2606 32010KT P6SM FEW060 BKN250
     FM250400 29005KT P6SM SCT250
     FM251700 27012G22KT P6SM FEW060
     FM260100 29006KT P6SM SKC=

USA.gov is the U.S. government's official web portal to all federal, state and local government web resources and services.